createdAt,value
2023-04-30T00:01:33.334Z,12.07
2023-04-30T00:04:00.870Z,12.25
2023-04-30T00:06:28.490Z,18.83
2023-04-30T00:08:56.274Z,13.30
2023-04-30T00:11:23.876Z,11.63
2023-04-30T00:13:52.121Z,16.67
2023-04-30T00:16:19.721Z,12.18
2023-04-30T00:18:47.120Z,11.40
2023-04-30T00:21:14.461Z,9.75
2023-04-30T00:23:41.768Z,12.18
2023-04-30T00:26:09.486Z,12.50
2023-04-30T00:28:37.685Z,11.40
2023-04-30T00:31:07.133Z,13.57
2023-04-30T00:33:34.614Z,15.13
2023-04-30T00:36:03.037Z,17.23
2023-04-30T00:38:30.461Z,13.82
2023-04-30T00:40:58.620Z,11.93
2023-04-30T00:43:26.134Z,15.27
2023-04-30T00:45:53.687Z,18.13
2023-04-30T00:48:21.246Z,19.67
2023-04-30T00:50:48.575Z,15.33
2023-04-30T00:53:17.063Z,14.30
2023-04-30T00:55:45.062Z,14.80
2023-04-30T00:58:12.570Z,11.82
2023-04-30T01:00:43.428Z,10.93
2023-04-30T01:03:10.948Z,12.13
2023-04-30T01:05:38.459Z,12.15
2023-04-30T01:08:06.207Z,10.93
2023-04-30T01:10:56.578Z,13.30
2023-04-30T01:13:35.117Z,15.43
2023-04-30T01:16:18.211Z,12.18
2023-04-30T01:18:57.170Z,16.27
2023-04-30T01:24:25.348Z,11.73
2023-04-30T01:27:52.768Z,13.68
2023-04-30T01:30:22.914Z,14.18
2023-04-30T01:32:50.356Z,12.85
2023-04-30T01:35:17.962Z,10.57
2023-04-30T01:38:09.895Z,11.50
2023-04-30T01:40:46.881Z,18.20
2023-04-30T01:43:44.593Z,11.80
2023-04-30T01:46:22.303Z,12.13
2023-04-30T01:49:29.630Z,16.02
2023-04-30T01:52:15.549Z,11.77
2023-04-30T01:54:53.427Z,12.25
2023-04-30T01:57:48.954Z,12.30
2023-04-30T02:00:18.090Z,12.25
2023-04-30T02:02:45.702Z,17.70
2023-04-30T02:05:13.393Z,11.27
2023-04-30T02:07:44.276Z,13.95
2023-04-30T02:10:14.703Z,16.80
2023-04-30T02:12:42.816Z,12.30
2023-04-30T02:15:10.958Z,11.05
2023-04-30T02:17:41.303Z,12.63
2023-04-30T02:20:09.996Z,12.60
2023-04-30T02:22:39.878Z,14.07
2023-04-30T02:25:08.096Z,18.00
2023-04-30T02:27:35.578Z,17.60
2023-04-30T02:30:03.377Z,22.00
2023-04-30T02:32:33.685Z,16.27
2023-04-30T02:35:01.373Z,16.27
2023-04-30T02:37:28.820Z,13.82
2023-04-30T02:39:56.565Z,11.70
2023-04-30T02:42:26.457Z,14.60
2023-04-30T02:44:53.937Z,34.35
2023-04-30T02:47:21.354Z,22.98
2023-04-30T02:49:48.779Z,22.60
2023-04-30T02:52:16.282Z,24.92
2023-04-30T02:54:43.811Z,19.38
2023-04-30T02:57:11.394Z,18.92
2023-04-30T02:59:39.870Z,24.02
2023-04-30T03:02:07.241Z,22.00
2023-04-30T03:04:34.609Z,15.27
2023-04-30T03:07:02.138Z,24.40
2023-04-30T03:09:32.360Z,18.75
2023-04-30T03:11:59.754Z,14.35
2023-04-30T03:14:27.143Z,16.77
2023-04-30T03:16:54.528Z,15.25
2023-04-30T03:19:25.298Z,13.63
2023-04-30T03:21:53.063Z,11.25
2023-04-30T03:24:20.541Z,13.02
2023-04-30T03:26:47.909Z,16.40
2023-04-30T03:29:15.336Z,18.73
2023-04-30T03:31:43.399Z,13.25
2023-04-30T03:34:11.590Z,15.45
2023-04-30T03:36:38.968Z,20.98
2023-04-30T03:39:06.772Z,19.48
2023-04-30T03:41:34.184Z,16.83
2023-04-30T03:44:01.626Z,16.70
2023-04-30T03:46:29.214Z,12.85
2023-04-30T03:48:56.577Z,15.10
2023-04-30T03:51:24.073Z,20.23
2023-04-30T03:53:51.444Z,17.70
2023-04-30T03:56:18.944Z,15.03
2023-04-30T03:58:46.284Z,16.25
2023-04-30T04:01:13.671Z,13.00
2023-04-30T04:03:41.122Z,13.80
2023-04-30T04:06:08.799Z,13.90
2023-04-30T04:08:36.922Z,11.98
2023-04-30T04:11:04.537Z,12.77
2023-04-30T04:13:32.018Z,27.98
2023-04-30T04:18:27.872Z,18.45
2023-04-30T04:23:25.583Z,23.20
2023-04-30T04:25:53.387Z,15.25
2023-04-30T04:28:22.319Z,11.43
2023-04-30T04:30:50.322Z,13.75
2023-04-30T04:33:17.920Z,10.82
2023-04-30T04:35:45.448Z,18.85
2023-04-30T04:38:13.952Z,18.50
2023-04-30T04:40:41.558Z,12.33
2023-04-30T04:43:09.189Z,15.10
2023-04-30T04:45:38.088Z,11.40
2023-04-30T04:48:06.222Z,12.13
2023-04-30T04:50:33.834Z,15.00
2023-04-30T04:53:01.222Z,9.93
2023-04-30T04:55:29.136Z,8.70
2023-04-30T04:57:56.735Z,12.48
2023-04-30T05:00:24.141Z,9.23
2023-04-30T05:02:51.731Z,7.07
2023-04-30T05:05:19.454Z,9.43
2023-04-30T05:07:46.945Z,10.25
2023-04-30T05:10:15.172Z,10.57
2023-04-30T05:12:42.642Z,10.38
2023-04-30T05:15:10.707Z,8.10
2023-04-30T05:17:38.162Z,9.23
2023-04-30T05:20:07.673Z,7.47
2023-04-30T05:22:35.222Z,8.60
2023-04-30T05:25:04.469Z,7.35
2023-04-30T05:27:32.436Z,6.05
2023-04-30T05:29:59.853Z,11.77
2023-04-30T05:32:28.171Z,10.80
2023-04-30T05:34:55.985Z,8.18
2023-04-30T05:37:23.513Z,12.98
2023-04-30T05:39:51.127Z,19.42
2023-04-30T05:42:18.593Z,17.40
2023-04-30T05:44:46.368Z,31.55
2023-04-30T05:47:13.814Z,13.90
2023-04-30T05:49:41.198Z,12.15
2023-04-30T05:52:08.568Z,11.30
2023-04-30T05:54:37.055Z,8.82
2023-04-30T05:57:04.471Z,6.50
2023-04-30T05:59:32.036Z,9.67
2023-04-30T06:01:59.599Z,8.05
2023-04-30T06:04:27.121Z,7.57
2023-04-30T06:06:54.463Z,9.57
2023-04-30T06:09:21.817Z,9.17
2023-04-30T06:11:52.339Z,12.50
2023-04-30T06:14:20.489Z,12.68
2023-04-30T06:16:48.569Z,9.85
2023-04-30T06:19:16.386Z,7.60
2023-04-30T06:21:44.252Z,12.45
2023-04-30T06:24:11.487Z,6.35
2023-04-30T06:26:39.170Z,6.35
2023-04-30T06:29:06.736Z,5.82
2023-04-30T06:31:34.219Z,5.50
2023-04-30T06:34:01.712Z,6.60
2023-04-30T06:36:29.211Z,7.43
2023-04-30T06:38:56.608Z,5.03
2023-04-30T06:41:24.026Z,10.57
2023-04-30T06:43:51.549Z,6.95
2023-04-30T06:46:19.005Z,7.45
2023-04-30T06:48:46.487Z,5.53
2023-04-30T06:51:13.893Z,4.70
2023-04-30T06:53:41.730Z,4.88
2023-04-30T06:56:09.117Z,9.73
2023-04-30T06:58:37.576Z,8.73
2023-04-30T07:01:06.148Z,6.22
2023-04-30T07:03:35.335Z,6.57
2023-04-30T07:06:03.145Z,5.32
2023-04-30T07:08:30.611Z,8.93
2023-04-30T07:10:58.315Z,5.82
2023-04-30T07:13:25.741Z,4.60
2023-04-30T07:15:53.166Z,6.80
2023-04-30T07:18:20.857Z,6.78
2023-04-30T07:20:48.195Z,6.35
2023-04-30T07:23:15.882Z,2.70
2023-04-30T07:25:43.500Z,5.53
2023-04-30T07:28:11.208Z,6.05
2023-04-30T07:30:38.601Z,14.65
2023-04-30T07:33:06.163Z,2.87
2023-04-30T07:35:33.636Z,2.88
2023-04-30T07:38:01.022Z,2.23
2023-04-30T07:40:35.927Z,4.33
2023-04-30T07:43:07.678Z,3.05
2023-04-30T07:45:36.946Z,5.13
2023-04-30T07:48:04.892Z,2.65
2023-04-30T07:50:35.404Z,6.82
2023-04-30T07:53:03.372Z,4.07
2023-04-30T07:55:31.275Z,6.10
2023-04-30T07:57:59.007Z,5.65
2023-04-30T08:00:26.775Z,4.82
2023-04-30T08:02:54.214Z,3.65
2023-04-30T08:05:21.689Z,4.07
2023-04-30T08:07:48.978Z,3.03
2023-04-30T08:10:16.365Z,5.70
2023-04-30T08:12:43.770Z,4.87
2023-04-30T08:15:11.388Z,8.98
2023-04-30T08:17:38.882Z,6.25
2023-04-30T08:20:07.678Z,3.70
2023-04-30T08:22:35.170Z,4.20
2023-04-30T08:25:02.829Z,6.10
2023-04-30T08:27:34.302Z,2.47
2023-04-30T08:30:01.781Z,2.80
2023-04-30T08:32:38.845Z,4.53
2023-04-30T08:35:07.096Z,3.58
2023-04-30T08:37:34.968Z,8.30
2023-04-30T08:40:02.416Z,2.85
2023-04-30T08:42:36.082Z,3.25
2023-04-30T08:45:04.972Z,5.47
2023-04-30T08:47:33.404Z,2.42
2023-04-30T08:50:01.204Z,4.85
2023-04-30T08:52:30.467Z,6.03
2023-04-30T08:55:01.314Z,5.60
2023-04-30T08:57:31.038Z,3.97
2023-04-30T08:59:58.341Z,10.57
2023-04-30T09:02:25.976Z,16.05
2023-04-30T09:04:53.501Z,6.68
2023-04-30T09:07:23.925Z,12.77
2023-04-30T09:09:54.276Z,21.33
2023-04-30T09:12:23.155Z,15.80
2023-04-30T09:15:07.510Z,16.55
2023-04-30T09:17:35.969Z,12.90
2023-04-30T09:20:13.900Z,12.25
2023-04-30T09:22:43.033Z,8.05
2023-04-30T09:25:11.571Z,4.32
2023-04-30T09:27:38.999Z,5.40
2023-04-30T09:30:08.211Z,9.93
2023-04-30T09:32:35.718Z,5.35
2023-04-30T09:35:03.338Z,8.05
2023-04-30T09:37:41.358Z,4.88
2023-04-30T09:40:09.739Z,4.47
2023-04-30T09:42:37.136Z,3.15
2023-04-30T09:45:06.184Z,3.93
2023-04-30T09:47:33.709Z,3.53
2023-04-30T09:50:01.137Z,20.35
2023-04-30T09:52:30.643Z,9.38
2023-04-30T09:54:58.134Z,14.57
2023-04-30T09:57:27.175Z,9.77
2023-04-30T09:59:55.519Z,15.48
2023-04-30T10:02:24.168Z,5.25
2023-04-30T10:04:58.421Z,10.20
2023-04-30T10:07:34.676Z,5.03
2023-04-30T10:10:11.297Z,3.88
2023-04-30T10:13:02.028Z,8.65
2023-04-30T10:15:37.469Z,5.85
2023-04-30T10:18:11.617Z,10.20
2023-04-30T10:20:40.260Z,5.80
2023-04-30T10:23:08.812Z,6.00
2023-04-30T10:25:38.793Z,22.08
2023-04-30T10:28:08.626Z,8.10
2023-04-30T10:30:36.635Z,5.32
2023-04-30T10:33:23.419Z,4.03
2023-04-30T10:36:06.556Z,3.55
2023-04-30T10:38:35.118Z,4.22
2023-04-30T10:41:03.263Z,3.55
2023-04-30T10:43:31.870Z,6.40
2023-04-30T10:45:59.827Z,9.70
2023-04-30T10:48:27.657Z,11.60
2023-04-30T10:50:59.903Z,19.15
2023-04-30T10:53:32.132Z,12.88
2023-04-30T10:56:07.088Z,5.68
2023-04-30T10:58:37.070Z,4.45
2023-04-30T11:01:15.216Z,4.15
2023-04-30T11:04:04.032Z,5.25
2023-04-30T11:06:50.553Z,6.27
2023-04-30T11:09:18.159Z,8.07
2023-04-30T11:11:46.700Z,11.95
2023-04-30T11:14:21.339Z,10.80
2023-04-30T11:16:54.103Z,10.85
2023-04-30T11:19:23.341Z,6.18
2023-04-30T11:22:13.665Z,6.65
2023-04-30T11:24:59.620Z,6.15
2023-04-30T11:27:29.995Z,3.58
2023-04-30T11:29:59.546Z,11.75
2023-04-30T11:32:34.992Z,10.27
2023-04-30T11:35:07.641Z,11.30
2023-04-30T11:37:40.212Z,5.03
2023-04-30T11:40:11.289Z,7.18
2023-04-30T11:42:40.639Z,8.05
2023-04-30T11:45:15.704Z,4.18
2023-04-30T11:47:52.395Z,4.47
2023-04-30T11:50:27.679Z,8.60
2023-04-30T11:53:03.382Z,6.53
2023-04-30T11:55:31.013Z,10.02
2023-04-30T11:58:00.211Z,8.40
2023-04-30T12:00:31.541Z,11.35
2023-04-30T12:03:03.866Z,9.90
2023-04-30T12:05:31.758Z,6.22
2023-04-30T12:08:06.747Z,5.55
2023-04-30T12:10:34.364Z,4.93
2023-04-30T12:13:01.972Z,8.50
2023-04-30T12:15:29.797Z,7.60
2023-04-30T12:18:00.259Z,5.80
2023-04-30T12:20:31.334Z,7.57
2023-04-30T12:22:59.030Z,8.30
2023-04-30T12:25:30.226Z,8.82
2023-04-30T12:27:59.893Z,10.98
2023-04-30T12:30:27.827Z,4.70
2023-04-30T12:33:00.404Z,6.93
2023-04-30T12:35:31.640Z,6.50
2023-04-30T12:38:09.860Z,4.82
2023-04-30T12:40:37.509Z,6.40
2023-04-30T12:43:07.698Z,5.65
2023-04-30T12:45:55.972Z,2.78
2023-04-30T12:48:26.167Z,5.65
2023-04-30T12:50:59.262Z,8.23
2023-04-30T12:53:27.130Z,6.65
2023-04-30T12:56:18.163Z,5.15
2023-04-30T12:58:51.267Z,5.70
2023-04-30T13:01:22.116Z,6.25
2023-04-30T13:03:49.762Z,7.15
2023-04-30T13:06:17.458Z,7.70
2023-04-30T13:08:57.292Z,3.85
2023-04-30T13:11:27.186Z,4.00
2023-04-30T13:13:58.192Z,7.88
2023-04-30T13:16:26.093Z,6.03
2023-04-30T13:18:55.138Z,5.65
2023-04-30T13:23:54.064Z,3.75
2023-04-30T13:26:23.576Z,5.03
2023-04-30T13:28:51.505Z,4.13
2023-04-30T13:31:18.997Z,4.18
2023-04-30T13:33:46.546Z,5.03
2023-04-30T13:36:14.271Z,9.10
2023-04-30T13:38:41.867Z,5.20
2023-04-30T13:41:09.461Z,5.90
2023-04-30T13:43:40.656Z,3.45
2023-04-30T13:46:10.001Z,9.05
2023-04-30T13:48:37.660Z,7.10
2023-04-30T13:51:05.061Z,5.20
2023-04-30T13:53:32.570Z,3.90
2023-04-30T13:56:00.257Z,4.88
2023-04-30T13:58:27.907Z,6.65
2023-04-30T14:00:55.512Z,6.32
2023-04-30T14:03:23.053Z,5.35
2023-04-30T14:05:51.106Z,12.85
2023-04-30T14:08:19.333Z,13.35
2023-04-30T14:10:47.575Z,8.57
2023-04-30T14:13:15.140Z,12.73
2023-04-30T14:15:42.669Z,8.85
2023-04-30T14:18:10.202Z,10.10
2023-04-30T14:20:37.515Z,7.37
2023-04-30T14:23:05.124Z,4.90
2023-04-30T14:25:32.532Z,7.65
2023-04-30T14:27:59.870Z,10.90
2023-04-30T14:30:27.265Z,10.87
2023-04-30T14:32:55.072Z,8.55
2023-04-30T14:35:22.457Z,6.55
2023-04-30T14:37:49.855Z,7.55
2023-04-30T14:40:17.288Z,6.05
2023-04-30T14:42:44.874Z,8.17
2023-04-30T14:45:12.321Z,6.10
2023-04-30T14:47:41.053Z,4.77
2023-04-30T14:50:09.699Z,10.57
2023-04-30T14:52:37.356Z,14.15
2023-04-30T14:55:05.400Z,10.02
2023-04-30T14:57:34.658Z,10.38
2023-04-30T15:00:02.718Z,7.75
2023-04-30T15:02:32.809Z,10.15
2023-04-30T15:05:00.305Z,26.38
2023-04-30T15:07:28.044Z,28.27
2023-04-30T15:09:55.888Z,23.73
2023-04-30T15:12:23.454Z,10.50
2023-04-30T15:14:51.058Z,7.68
2023-04-30T15:17:19.405Z,13.63
2023-04-30T15:19:46.813Z,15.48
2023-04-30T15:22:14.279Z,8.70
2023-04-30T15:24:41.778Z,21.55
2023-04-30T15:27:09.191Z,29.37
2023-04-30T15:29:40.480Z,30.05
2023-04-30T15:32:07.946Z,19.67
2023-04-30T15:34:35.255Z,23.50
2023-04-30T15:37:03.118Z,27.70
2023-04-30T15:39:31.572Z,19.63
2023-04-30T15:41:59.017Z,22.90
2023-04-30T15:44:26.601Z,29.57
2023-04-30T15:46:54.314Z,25.65
2023-04-30T15:49:23.414Z,18.92
2023-04-30T15:51:53.969Z,5.40
2023-04-30T15:54:21.394Z,20.85
2023-04-30T15:56:48.933Z,16.03
2023-04-30T15:59:18.460Z,16.52
2023-04-30T16:01:47.250Z,18.67
2023-04-30T16:04:14.784Z,16.55
2023-04-30T16:06:42.656Z,18.97
2023-04-30T16:09:10.243Z,14.43
2023-04-30T16:11:38.050Z,22.90
2023-04-30T16:14:05.509Z,10.73
2023-04-30T16:16:33.069Z,24.02
2023-04-30T16:19:00.450Z,16.17
2023-04-30T16:21:34.613Z,7.03
2023-04-30T16:24:03.206Z,7.50
2023-04-30T16:26:30.862Z,8.97
2023-04-30T16:28:58.606Z,20.63
2023-04-30T16:31:26.194Z,16.23
2023-04-30T16:33:53.773Z,11.45
2023-04-30T16:36:21.318Z,20.88
2023-04-30T16:38:48.900Z,11.13
2023-04-30T16:41:17.803Z,7.32
2023-04-30T16:43:46.018Z,7.95
2023-04-30T16:48:40.513Z,5.97
2023-04-30T16:51:09.678Z,9.15
2023-04-30T16:53:37.012Z,9.75
2023-04-30T16:56:04.953Z,5.63
2023-04-30T16:58:32.428Z,4.03
2023-04-30T17:00:59.821Z,6.23
2023-04-30T17:03:27.332Z,4.37
2023-04-30T17:05:55.005Z,4.22
2023-04-30T17:08:23.214Z,4.65
2023-04-30T17:10:50.590Z,5.07
2023-04-30T17:13:18.806Z,6.00
2023-04-30T17:15:46.622Z,6.55
2023-04-30T17:18:15.380Z,4.75
2023-04-30T17:20:42.928Z,5.55
2023-04-30T17:23:10.316Z,4.63
2023-04-30T17:25:38.498Z,6.47
2023-04-30T17:28:06.049Z,4.68
2023-04-30T17:30:33.806Z,7.10
2023-04-30T17:33:01.254Z,17.77
2023-04-30T17:35:28.838Z,5.10
2023-04-30T17:37:56.522Z,7.70
2023-04-30T17:40:23.989Z,11.57
2023-04-30T17:42:52.240Z,13.90
2023-04-30T17:47:47.014Z,18.85
2023-04-30T17:50:15.542Z,10.67
2023-04-30T17:55:10.675Z,14.63
2023-04-30T17:57:38.361Z,15.27
2023-04-30T18:00:07.329Z,12.48
2023-04-30T18:02:43.715Z,4.57
2023-04-30T18:05:12.192Z,4.03
2023-04-30T18:10:07.643Z,4.75
2023-04-30T18:15:03.405Z,5.28
2023-04-30T18:17:37.087Z,4.45
2023-04-30T18:20:06.032Z,3.88
2023-04-30T18:25:00.477Z,4.53
2023-04-30T18:27:27.895Z,4.53
2023-04-30T18:29:56.800Z,3.50
2023-04-30T18:32:24.503Z,6.03
2023-04-30T18:34:51.925Z,2.90
2023-04-30T18:37:19.473Z,5.28
2023-04-30T18:39:46.986Z,5.63
2023-04-30T18:42:14.947Z,4.63
2023-04-30T18:44:42.332Z,7.30
2023-04-30T18:47:09.657Z,3.83
2023-04-30T18:49:37.383Z,4.68
2023-04-30T18:52:05.074Z,6.90
2023-04-30T18:54:32.491Z,2.72
2023-04-30T18:56:59.780Z,4.20
2023-04-30T18:59:28.992Z,5.33
2023-04-30T19:01:56.657Z,3.38
2023-04-30T19:04:24.037Z,4.50
2023-04-30T19:06:52.460Z,4.57
2023-04-30T19:09:19.893Z,2.97
2023-04-30T19:11:48.081Z,3.28
2023-04-30T19:16:42.711Z,10.07
2023-04-30T19:19:10.273Z,7.30
2023-04-30T19:21:37.714Z,4.80
2023-04-30T19:24:06.015Z,6.07
2023-04-30T19:26:34.340Z,8.18
2023-04-30T19:29:03.576Z,5.75
2023-04-30T19:31:31.307Z,3.10
2023-04-30T19:34:01.345Z,2.95
2023-04-30T19:36:28.784Z,4.88
2023-04-30T19:38:56.596Z,2.72
2023-04-30T19:41:24.062Z,4.20
2023-04-30T19:43:53.606Z,3.22
2023-04-30T19:46:21.377Z,3.35
2023-04-30T19:48:50.535Z,2.20
2023-04-30T19:51:18.042Z,2.83
2023-04-30T19:53:47.854Z,3.33
2023-04-30T19:56:15.216Z,6.20
2023-04-30T19:58:42.603Z,5.60
2023-04-30T20:01:10.449Z,5.43
2023-04-30T20:03:38.291Z,3.08
2023-04-30T20:06:08.494Z,2.50
2023-04-30T20:08:36.688Z,2.50
2023-04-30T20:11:04.320Z,3.28
2023-04-30T20:13:31.737Z,4.20
2023-04-30T20:15:59.597Z,3.90
2023-04-30T20:18:27.078Z,4.05
2023-04-30T20:20:56.417Z,4.35
2023-04-30T20:23:23.824Z,4.03
2023-04-30T20:25:51.283Z,4.60
2023-04-30T20:28:19.225Z,5.22
2023-04-30T20:30:48.351Z,3.85
2023-04-30T20:33:15.792Z,3.50
2023-04-30T20:35:47.693Z,4.07
2023-04-30T20:38:19.538Z,4.60
2023-04-30T20:40:47.544Z,3.85
2023-04-30T20:43:15.457Z,4.25
2023-04-30T20:45:45.451Z,3.05
2023-04-30T20:48:13.240Z,5.55
2023-04-30T20:50:41.464Z,5.45
2023-04-30T20:53:11.136Z,4.22
2023-04-30T20:55:39.073Z,6.50
2023-04-30T20:58:07.939Z,4.80
2023-04-30T21:00:35.757Z,4.35
2023-04-30T21:03:03.324Z,5.20
2023-04-30T21:05:30.817Z,4.85
2023-04-30T21:08:01.718Z,2.70
2023-04-30T21:10:36.538Z,3.85
2023-04-30T21:13:06.080Z,4.93
2023-04-30T21:15:36.504Z,4.10
2023-04-30T21:18:04.121Z,4.50
2023-04-30T21:20:32.250Z,3.30
2023-04-30T21:23:01.911Z,4.30
2023-04-30T21:25:29.448Z,4.97
2023-04-30T21:27:57.223Z,5.03
2023-04-30T21:30:26.648Z,3.08
2023-04-30T21:32:58.837Z,2.97
2023-04-30T21:35:30.262Z,2.13
2023-04-30T21:38:00.953Z,2.22
2023-04-30T21:40:32.264Z,2.40
2023-04-30T21:43:03.796Z,2.65
2023-04-30T21:45:35.079Z,7.70
2023-04-30T21:48:02.516Z,2.22
2023-04-30T21:50:33.465Z,3.20
2023-04-30T21:53:02.674Z,2.75
2023-04-30T21:55:30.017Z,4.47
2023-04-30T21:57:57.635Z,6.03
2023-04-30T22:00:25.527Z,2.45
2023-04-30T22:02:52.949Z,1.85
2023-04-30T22:05:21.341Z,8.87
2023-04-30T22:07:48.863Z,3.03
2023-04-30T22:10:16.432Z,1.50
2023-04-30T22:12:47.158Z,2.42
2023-04-30T22:15:15.502Z,2.28
2023-04-30T22:17:43.123Z,1.52
2023-04-30T22:20:11.165Z,2.40
2023-04-30T22:22:38.736Z,3.72
2023-04-30T22:25:06.656Z,3.30
2023-04-30T22:27:33.955Z,2.53
2023-04-30T22:30:01.312Z,2.13
2023-04-30T22:32:28.819Z,4.30
2023-04-30T22:34:56.837Z,1.57
2023-04-30T22:37:24.723Z,2.88
2023-04-30T22:39:52.221Z,3.15
2023-04-30T22:42:19.614Z,3.23
2023-04-30T22:44:47.206Z,2.05
2023-04-30T22:47:14.724Z,2.87
2023-04-30T22:49:42.660Z,4.60
2023-04-30T22:52:10.122Z,2.78
2023-04-30T22:54:37.507Z,2.37
2023-04-30T22:57:04.829Z,2.65
2023-04-30T22:59:32.233Z,4.50
2023-04-30T23:01:59.807Z,2.57
2023-04-30T23:04:28.644Z,3.13
2023-04-30T23:06:56.760Z,4.13
2023-04-30T23:09:24.876Z,2.50
2023-04-30T23:11:52.224Z,3.28
2023-04-30T23:14:19.776Z,2.67
2023-04-30T23:16:47.174Z,3.67
2023-04-30T23:19:16.969Z,3.90
2023-04-30T23:21:44.313Z,4.20
2023-04-30T23:24:11.784Z,5.63
2023-04-30T23:26:39.364Z,5.38
2023-04-30T23:29:06.741Z,3.27
2023-04-30T23:31:34.115Z,3.05
2023-04-30T23:34:01.526Z,4.77
2023-04-30T23:36:29.035Z,4.40
2023-04-30T23:38:56.832Z,3.50
2023-04-30T23:41:24.509Z,4.07
2023-04-30T23:43:51.828Z,4.82
2023-04-30T23:46:19.439Z,5.00
2023-04-30T23:48:46.902Z,3.70
2023-04-30T23:51:14.297Z,2.03
2023-04-30T23:53:41.785Z,2.50
2023-04-30T23:56:09.124Z,2.70
2023-04-30T23:58:36.673Z,4.88
